createdAt,value
2023-03-24T00:01:44.427Z,100.00
2023-03-24T00:04:14.442Z,100.00
2023-03-24T00:06:45.614Z,100.00
2023-03-24T00:09:17.063Z,100.00
2023-03-24T00:11:47.682Z,100.00
2023-03-24T00:14:18.661Z,100.00
2023-03-24T00:16:50.166Z,100.00
2023-03-24T00:19:21.431Z,100.00
2023-03-24T00:21:56.088Z,100.00
2023-03-24T00:24:27.859Z,100.00
2023-03-24T00:26:58.874Z,100.00
2023-03-24T00:29:30.199Z,100.00
2023-03-24T00:32:01.559Z,100.00
2023-03-24T00:34:31.591Z,100.00
2023-03-24T00:37:01.312Z,100.00
2023-03-24T00:39:32.386Z,100.00
2023-03-24T00:42:04.011Z,100.00
2023-03-24T00:44:35.114Z,100.00
2023-03-24T00:47:04.795Z,100.00
2023-03-24T00:49:44.856Z,100.00
2023-03-24T00:52:18.976Z,100.00
2023-03-24T00:54:53.105Z,100.00
2023-03-24T00:57:24.152Z,100.00
2023-03-24T00:59:56.141Z,100.00
2023-03-24T01:02:28.808Z,100.00
2023-03-24T01:05:02.916Z,100.00
2023-03-24T01:07:34.213Z,100.00
2023-03-24T01:10:07.164Z,100.00
2023-03-24T01:12:38.790Z,100.00
2023-03-24T01:15:22.091Z,100.00
2023-03-24T01:17:53.684Z,100.00
2023-03-24T01:20:26.395Z,100.00
2023-03-24T01:22:57.425Z,100.00
2023-03-24T01:25:30.253Z,100.00
2023-03-24T01:28:00.846Z,100.00
2023-03-24T01:30:33.353Z,100.00
2023-03-24T01:33:04.181Z,100.00
2023-03-24T01:35:34.097Z,100.00
2023-03-24T01:38:07.923Z,100.00
2023-03-24T01:40:43.018Z,100.00
2023-03-24T01:43:22.260Z,100.00
2023-03-24T01:46:07.735Z,100.00
2023-03-24T01:48:45.677Z,100.00
2023-03-24T01:51:21.547Z,100.00
2023-03-24T01:53:58.936Z,100.00
2023-03-24T01:56:36.057Z,100.00
2023-03-24T01:59:11.113Z,100.00
2023-03-24T02:01:41.942Z,100.00
2023-03-24T02:04:13.008Z,100.00
2023-03-24T02:06:49.719Z,100.00
2023-03-24T02:09:20.096Z,100.00
2023-03-24T02:11:51.624Z,100.00
2023-03-24T02:14:22.548Z,100.00
2023-03-24T02:17:59.764Z,100.00
2023-03-24T02:21:23.200Z,100.00
2023-03-24T02:25:09.085Z,100.00
2023-03-24T02:28:21.593Z,100.00
2023-03-24T02:31:18.154Z,100.00
2023-03-24T02:34:44.898Z,100.00
2023-03-24T02:38:10.108Z,100.00
2023-03-24T02:40:48.339Z,100.00
2023-03-24T02:43:50.870Z,100.00
2023-03-24T02:46:26.856Z,100.00
2023-03-24T02:49:21.038Z,100.00
2023-03-24T02:52:00.804Z,100.00
2023-03-24T02:54:44.392Z,100.00
2023-03-24T02:57:24.639Z,100.00
2023-03-24T03:00:02.728Z,100.00
2023-03-24T03:02:38.890Z,100.00
2023-03-24T03:05:15.101Z,100.00
2023-03-24T03:07:48.991Z,100.00
2023-03-24T03:10:25.712Z,100.00
2023-03-24T03:13:01.386Z,100.00
2023-03-24T03:15:36.580Z,100.00
2023-03-24T03:18:17.410Z,100.00
2023-03-24T03:20:54.240Z,100.00
2023-03-24T03:23:33.166Z,100.00
2023-03-24T03:26:06.270Z,100.00
2023-03-24T03:28:50.240Z,100.00
2023-03-24T03:31:30.921Z,100.00
2023-03-24T03:34:12.983Z,100.00
2023-03-24T03:36:52.761Z,100.00
2023-03-24T03:39:29.977Z,100.00
2023-03-24T03:42:00.936Z,100.00
2023-03-24T03:44:33.972Z,100.00
2023-03-24T03:47:05.036Z,100.00
2023-03-24T03:49:35.081Z,100.00
2023-03-24T03:52:06.815Z,100.00
2023-03-24T03:54:39.925Z,100.00
2023-03-24T03:57:10.371Z,100.00
2023-03-24T03:59:41.943Z,100.00
2023-03-24T04:02:39.825Z,100.00
2023-03-24T04:05:29.918Z,100.00
2023-03-24T04:08:26.487Z,100.00
2023-03-24T04:11:28.209Z,100.00
2023-03-24T04:14:20.365Z,100.00
2023-03-24T04:17:08.300Z,100.00
2023-03-24T04:20:02.679Z,100.00
2023-03-24T04:22:57.481Z,100.00
2023-03-24T04:25:36.614Z,100.00
2023-03-24T04:28:21.196Z,100.00
2023-03-24T04:31:01.409Z,100.00
2023-03-24T04:33:43.372Z,100.00
2023-03-24T04:36:28.089Z,100.00
2023-03-24T04:39:02.639Z,100.00
2023-03-24T04:41:33.870Z,100.00
2023-03-24T04:44:03.168Z,100.00
2023-03-24T04:46:33.963Z,100.00
2023-03-24T04:49:06.348Z,100.00
2023-03-24T04:51:37.909Z,100.00
2023-03-24T04:54:08.420Z,100.00
2023-03-24T04:56:46.023Z,100.00
2023-03-24T04:59:18.287Z,100.00
2023-03-24T05:01:49.910Z,100.00
2023-03-24T05:04:22.535Z,100.00
2023-03-24T05:06:51.299Z,100.00
2023-03-24T05:09:22.908Z,100.00
2023-03-24T05:11:53.791Z,100.00
2023-03-24T05:14:23.360Z,100.00
2023-03-24T05:16:53.360Z,100.00
2023-03-24T05:19:25.289Z,100.00
2023-03-24T05:21:54.962Z,100.00
2023-03-24T05:24:24.312Z,100.00
2023-03-24T05:26:54.845Z,100.00
2023-03-24T05:29:24.666Z,100.00
2023-03-24T05:31:54.265Z,100.00
2023-03-24T05:34:26.487Z,100.00
2023-03-24T05:36:56.134Z,100.00
2023-03-24T05:39:26.779Z,100.00
2023-03-24T05:41:56.724Z,100.00
2023-03-24T05:44:27.927Z,100.00
2023-03-24T05:46:56.776Z,100.00
2023-03-24T05:49:27.053Z,100.00
2023-03-24T05:51:56.999Z,100.00
2023-03-24T05:54:26.806Z,100.00
2023-03-24T05:56:58.035Z,100.00
2023-03-24T05:59:27.880Z,100.00
2023-03-24T06:01:57.694Z,100.00
2023-03-24T06:04:31.087Z,100.00
2023-03-24T06:07:01.642Z,100.00
2023-03-24T06:09:38.249Z,100.00
2023-03-24T06:12:10.594Z,100.00
2023-03-24T06:14:41.148Z,100.00
2023-03-24T06:17:15.254Z,100.00
2023-03-24T06:19:50.201Z,100.00
2023-03-24T06:22:20.612Z,100.00
2023-03-24T06:24:54.446Z,100.00
2023-03-24T06:27:26.758Z,100.00
2023-03-24T06:29:56.938Z,100.00
2023-03-24T06:32:27.691Z,100.00
2023-03-24T06:34:58.752Z,100.00
2023-03-24T06:37:30.254Z,100.00
2023-03-24T06:39:59.982Z,100.00
2023-03-24T06:42:30.054Z,100.00
2023-03-24T06:45:00.774Z,100.00
2023-03-24T06:47:30.933Z,100.00
2023-03-24T06:50:02.205Z,100.00
2023-03-24T06:52:31.915Z,100.00
2023-03-24T06:55:01.914Z,100.00
2023-03-24T06:57:32.791Z,100.00
2023-03-24T07:00:09.862Z,100.00
2023-03-24T07:02:40.524Z,100.00
2023-03-24T07:05:13.049Z,100.00
2023-03-24T07:10:17.117Z,100.00
2023-03-24T07:12:48.257Z,100.00
2023-03-24T07:15:19.577Z,100.00
2023-03-24T07:17:51.071Z,100.00
2023-03-24T07:20:24.052Z,100.00
2023-03-24T07:22:58.536Z,100.00
2023-03-24T07:25:27.450Z,100.00
2023-03-24T07:27:57.909Z,100.00
2023-03-24T07:30:39.786Z,100.00
2023-03-24T07:33:12.987Z,100.00
2023-03-24T07:35:44.904Z,100.00
2023-03-24T07:38:14.817Z,100.00
2023-03-24T07:40:45.229Z,100.00
2023-03-24T07:43:15.850Z,100.00
2023-03-24T07:45:46.827Z,100.00
2023-03-24T07:48:17.798Z,100.00
2023-03-24T07:50:49.285Z,100.00
2023-03-24T07:53:20.694Z,100.00
2023-03-24T07:55:50.943Z,100.00
2023-03-24T07:58:21.770Z,100.00
2023-03-24T08:00:51.164Z,100.00
2023-03-24T08:03:28.767Z,100.00
2023-03-24T08:06:00.018Z,100.00
2023-03-24T08:08:30.999Z,100.00
2023-03-24T08:11:01.329Z,100.00
2023-03-24T08:13:30.675Z,100.00
2023-03-24T08:16:00.835Z,100.00
2023-03-24T08:18:33.178Z,100.00
2023-03-24T08:21:06.169Z,100.00
2023-03-24T08:23:37.353Z,100.00
2023-03-24T08:26:07.993Z,100.00
2023-03-24T08:28:37.044Z,100.00
2023-03-24T08:31:07.910Z,100.00
2023-03-24T08:33:37.600Z,100.00
2023-03-24T08:36:10.897Z,100.00
2023-03-24T08:38:42.503Z,100.00
2023-03-24T08:41:12.719Z,100.00
2023-03-24T08:43:42.717Z,100.00
2023-03-24T08:46:14.017Z,100.00
2023-03-24T08:48:44.608Z,100.00
2023-03-24T08:51:17.948Z,100.00
2023-03-24T08:53:47.317Z,100.00
2023-03-24T08:56:16.920Z,100.00
2023-03-24T08:58:46.577Z,100.00
2023-03-24T09:01:16.743Z,100.00
2023-03-24T09:03:47.528Z,100.00
2023-03-24T09:06:19.650Z,100.00
2023-03-24T09:08:50.165Z,100.00
2023-03-24T09:11:23.353Z,100.00
2023-03-24T09:13:53.118Z,100.00
2023-03-24T09:16:23.438Z,100.00
2023-03-24T09:18:53.378Z,100.00
2023-03-24T09:21:25.500Z,100.00
2023-03-24T09:23:55.564Z,100.00
2023-03-24T09:26:25.562Z,100.00
2023-03-24T09:28:56.092Z,100.00
2023-03-24T09:31:26.779Z,100.00
2023-03-24T09:33:57.237Z,100.00
2023-03-24T09:36:31.091Z,100.00
2023-03-24T09:39:00.748Z,100.00
2023-03-24T09:41:34.526Z,100.00
2023-03-24T09:44:21.763Z,100.00
2023-03-24T09:47:02.221Z,100.00
2023-03-24T09:49:39.307Z,100.00
2023-03-24T09:52:15.192Z,100.00
2023-03-24T09:54:53.691Z,100.00
2023-03-24T09:57:29.098Z,100.00
2023-03-24T09:59:59.282Z,100.00
2023-03-24T10:02:32.161Z,100.00
2023-03-24T10:05:03.754Z,100.00
2023-03-24T10:07:44.858Z,100.00
2023-03-24T10:10:29.304Z,100.00
2023-03-24T10:13:09.293Z,100.00
2023-03-24T10:15:52.155Z,100.00
2023-03-24T10:18:39.016Z,100.00
2023-03-24T10:21:21.500Z,100.00
2023-03-24T10:24:03.493Z,100.00
2023-03-24T10:26:48.515Z,100.00
2023-03-24T10:29:28.858Z,100.00
2023-03-24T10:32:05.207Z,100.00
2023-03-24T10:34:37.958Z,100.00
2023-03-24T10:37:08.840Z,100.00
2023-03-24T10:39:44.569Z,100.00
2023-03-24T10:42:22.391Z,100.00
2023-03-24T10:44:53.593Z,100.00
2023-03-24T10:47:28.986Z,100.00
2023-03-24T10:50:12.363Z,100.00
2023-03-24T10:52:47.835Z,100.00
2023-03-24T10:55:23.744Z,100.00
2023-03-24T10:57:58.354Z,100.00
2023-03-24T11:00:31.808Z,100.00
2023-03-24T11:03:05.103Z,100.00
2023-03-24T11:05:38.508Z,100.00
2023-03-24T11:08:28.760Z,100.00
2023-03-24T11:10:59.289Z,100.00
2023-03-24T11:13:35.894Z,100.00
2023-03-24T11:16:14.231Z,100.00
2023-03-24T11:18:59.466Z,100.00
2023-03-24T11:21:31.058Z,100.00
2023-03-24T11:24:04.535Z,100.00
2023-03-24T11:26:39.207Z,100.00
2023-03-24T11:29:15.934Z,100.00
2023-03-24T11:31:57.000Z,100.00
2023-03-24T11:34:34.657Z,100.00
2023-03-24T11:37:07.516Z,100.00
2023-03-24T11:39:39.003Z,100.00
2023-03-24T11:42:19.019Z,100.00
2023-03-24T11:44:51.891Z,100.00
2023-03-24T11:47:31.659Z,100.00
2023-03-24T11:50:20.943Z,100.00
2023-03-24T11:52:56.031Z,100.00
2023-03-24T11:55:37.287Z,100.00
2023-03-24T11:58:21.627Z,100.00
2023-03-24T12:00:57.842Z,100.00
2023-03-24T12:03:57.539Z,100.00
2023-03-24T12:06:48.676Z,100.00
2023-03-24T12:09:32.805Z,100.00
2023-03-24T12:12:25.669Z,100.00
2023-03-24T12:15:30.991Z,100.00
2023-03-24T12:18:21.086Z,100.00
2023-03-24T12:21:01.415Z,100.00
2023-03-24T12:23:43.674Z,100.00
2023-03-24T12:26:25.637Z,100.00
2023-03-24T12:29:25.394Z,100.00
2023-03-24T12:32:22.656Z,100.00
2023-03-24T12:35:14.651Z,100.00
2023-03-24T12:37:58.696Z,100.00
2023-03-24T12:41:03.502Z,100.00
2023-03-24T12:43:49.623Z,100.00
2023-03-24T12:46:47.838Z,100.00
2023-03-24T12:49:55.861Z,100.00
2023-03-24T12:53:07.551Z,100.00
2023-03-24T12:55:46.464Z,100.00
2023-03-24T12:58:24.460Z,100.00
2023-03-24T13:01:07.465Z,100.00
2023-03-24T13:03:43.220Z,100.00
2023-03-24T13:06:25.159Z,100.00
2023-03-24T13:09:09.639Z,100.00
2023-03-24T13:11:49.937Z,100.00
2023-03-24T13:14:28.676Z,100.00
2023-03-24T13:17:07.362Z,100.00
2023-03-24T13:19:41.436Z,100.00
2023-03-24T13:22:19.442Z,100.00
2023-03-24T13:24:50.250Z,100.00
2023-03-24T13:27:25.950Z,100.00
2023-03-24T13:30:32.396Z,100.00
2023-03-24T13:33:07.763Z,99.68
2023-03-24T13:36:00.506Z,100.00
2023-03-24T13:38:38.542Z,94.86
2023-03-24T13:41:12.899Z,98.50
2023-03-24T13:43:50.758Z,91.22
2023-03-24T13:46:21.012Z,81.77
2023-03-24T13:48:56.324Z,79.07
2023-03-24T13:51:31.653Z,80.95
2023-03-24T13:54:07.337Z,80.86
2023-03-24T13:56:40.964Z,83.79
2023-03-24T13:59:33.584Z,83.38
2023-03-24T14:02:25.285Z,85.23
2023-03-24T14:05:07.330Z,86.13
2023-03-24T14:07:51.542Z,81.64
2023-03-24T14:10:45.761Z,80.97
2023-03-24T14:13:41.482Z,83.71
2023-03-24T14:16:43.815Z,82.53
2023-03-24T14:19:32.035Z,79.88
2023-03-24T14:22:15.002Z,74.70
2023-03-24T14:24:47.783Z,74.37
2023-03-24T14:27:42.508Z,73.85
2023-03-24T14:30:22.808Z,71.44
2023-03-24T14:32:56.630Z,68.43
2023-03-24T14:35:37.553Z,70.56
2023-03-24T14:38:23.715Z,70.17
2023-03-24T14:40:59.550Z,69.69
2023-03-24T14:43:56.342Z,69.42
2023-03-24T14:46:41.563Z,69.96
2023-03-24T14:49:24.688Z,70.22
2023-03-24T14:52:04.125Z,71.17
2023-03-24T14:54:42.087Z,69.51
2023-03-24T14:57:20.224Z,67.95
2023-03-24T14:59:58.724Z,69.43
2023-03-24T15:02:37.629Z,67.92
2023-03-24T15:05:30.536Z,67.31
2023-03-24T15:08:12.279Z,65.02
2023-03-24T15:10:48.607Z,66.62
2023-03-24T15:13:43.594Z,65.02
2023-03-24T15:16:25.000Z,65.62
2023-03-24T15:19:01.974Z,67.10
2023-03-24T15:21:37.399Z,65.42
2023-03-24T15:24:29.645Z,66.74
2023-03-24T15:27:27.061Z,66.93
2023-03-24T15:30:00.123Z,66.52
2023-03-24T15:32:39.099Z,67.45
2023-03-24T15:35:14.046Z,66.16
2023-03-24T15:37:48.823Z,66.66
2023-03-24T15:40:40.447Z,67.81
2023-03-24T15:43:22.342Z,67.47
2023-03-24T15:46:04.658Z,68.38
2023-03-24T15:48:42.697Z,68.41
2023-03-24T15:51:13.405Z,69.54
2023-03-24T15:53:45.172Z,68.82
2023-03-24T15:56:27.195Z,71.17
2023-03-24T15:58:59.244Z,71.40
2023-03-24T16:01:36.158Z,72.58
2023-03-24T16:04:15.417Z,72.29
2023-03-24T16:06:53.400Z,71.80
2023-03-24T16:09:28.022Z,72.67
2023-03-24T16:11:57.657Z,74.73
2023-03-24T16:14:29.931Z,76.31
2023-03-24T16:17:02.208Z,75.83
2023-03-24T16:19:32.884Z,76.68
2023-03-24T16:22:03.986Z,77.28
2023-03-24T16:24:33.462Z,78.21
2023-03-24T16:27:03.937Z,78.24
2023-03-24T16:29:33.781Z,79.07
2023-03-24T16:32:03.749Z,80.25
2023-03-24T16:34:36.713Z,80.37
2023-03-24T16:37:06.868Z,81.75
2023-03-24T16:39:36.418Z,81.10
2023-03-24T16:42:06.983Z,83.20
2023-03-24T16:44:35.928Z,83.86
2023-03-24T16:47:10.958Z,84.27
2023-03-24T16:49:41.926Z,85.56
2023-03-24T16:52:15.845Z,85.31
2023-03-24T16:54:46.451Z,85.90
2023-03-24T16:57:17.055Z,86.29
2023-03-24T16:59:46.752Z,85.95
2023-03-24T17:02:17.127Z,86.66
2023-03-24T17:04:48.767Z,87.29
2023-03-24T17:07:19.414Z,85.40
2023-03-24T17:09:50.665Z,84.46
2023-03-24T17:12:20.675Z,84.27
2023-03-24T17:14:50.248Z,85.28
2023-03-24T17:17:20.234Z,85.39
2023-03-24T17:19:51.791Z,84.98
2023-03-24T17:22:21.845Z,85.09
2023-03-24T17:24:52.135Z,85.62
2023-03-24T17:27:21.455Z,85.17
2023-03-24T17:29:51.621Z,85.67
2023-03-24T17:32:22.328Z,85.97
2023-03-24T17:34:53.824Z,86.30
2023-03-24T17:37:24.269Z,86.78
2023-03-24T17:39:57.034Z,88.13
2023-03-24T17:42:28.436Z,89.11
2023-03-24T17:44:59.709Z,90.09
2023-03-24T17:47:30.995Z,91.19
2023-03-24T17:50:02.702Z,91.40
2023-03-24T17:52:31.404Z,91.15
2023-03-24T17:55:02.268Z,93.68
2023-03-24T17:57:32.583Z,92.80
2023-03-24T18:00:02.700Z,94.37
2023-03-24T18:02:32.284Z,96.61
2023-03-24T18:05:03.469Z,95.52
2023-03-24T18:07:33.002Z,97.17
2023-03-24T18:10:02.080Z,96.58
2023-03-24T18:12:32.050Z,94.33
2023-03-24T18:15:01.360Z,93.72
2023-03-24T18:17:31.968Z,93.60
2023-03-24T18:20:10.700Z,94.98
2023-03-24T18:22:41.436Z,97.40
2023-03-24T18:25:13.506Z,99.01
2023-03-24T18:27:43.516Z,100.00
2023-03-24T18:30:15.431Z,100.00
2023-03-24T18:32:45.071Z,100.00
2023-03-24T18:35:19.748Z,100.00
2023-03-24T18:37:50.300Z,100.00
2023-03-24T18:40:20.262Z,100.00
2023-03-24T18:42:49.240Z,100.00
2023-03-24T18:45:20.262Z,100.00
2023-03-24T18:47:50.027Z,100.00
2023-03-24T18:50:21.444Z,100.00
2023-03-24T18:52:51.137Z,100.00
2023-03-24T18:55:24.786Z,100.00
2023-03-24T18:57:54.455Z,100.00
2023-03-24T19:00:26.133Z,100.00
2023-03-24T19:02:55.346Z,100.00
2023-03-24T19:05:27.380Z,100.00
2023-03-24T19:07:56.368Z,100.00
2023-03-24T19:10:25.813Z,100.00
2023-03-24T19:12:56.125Z,100.00
2023-03-24T19:15:26.022Z,100.00
2023-03-24T19:17:56.349Z,100.00
2023-03-24T19:20:28.913Z,100.00
2023-03-24T19:23:00.161Z,100.00
2023-03-24T19:25:30.653Z,100.00
2023-03-24T19:28:00.417Z,100.00
2023-03-24T19:30:30.423Z,100.00
2023-03-24T19:32:59.881Z,100.00
2023-03-24T19:35:32.013Z,100.00
2023-03-24T19:38:02.016Z,100.00
2023-03-24T19:40:31.070Z,100.00
2023-03-24T19:43:00.524Z,100.00
2023-03-24T19:45:29.563Z,100.00
2023-03-24T19:47:59.147Z,100.00
2023-03-24T19:50:30.506Z,100.00
2023-03-24T19:53:01.169Z,100.00
2023-03-24T19:55:31.431Z,100.00
2023-03-24T19:58:01.545Z,100.00
2023-03-24T20:00:30.555Z,100.00
2023-03-24T20:03:00.615Z,100.00
2023-03-24T20:05:31.536Z,100.00
2023-03-24T20:08:01.321Z,100.00
2023-03-24T20:10:31.402Z,100.00
2023-03-24T20:13:01.625Z,100.00
2023-03-24T20:15:32.047Z,100.00
2023-03-24T20:18:01.274Z,100.00
2023-03-24T20:20:32.371Z,100.00
2023-03-24T20:23:02.311Z,100.00
2023-03-24T20:25:31.899Z,100.00
2023-03-24T20:28:01.591Z,100.00
2023-03-24T20:30:33.343Z,100.00
2023-03-24T20:33:02.702Z,100.00
2023-03-24T20:35:35.944Z,100.00
2023-03-24T20:38:05.988Z,100.00
2023-03-24T20:40:36.365Z,100.00
2023-03-24T20:43:04.779Z,100.00
2023-03-24T20:45:34.653Z,100.00
2023-03-24T20:48:04.568Z,100.00
2023-03-24T20:50:36.786Z,100.00
2023-03-24T20:53:05.801Z,100.00
2023-03-24T20:55:36.631Z,100.00
2023-03-24T20:58:08.199Z,100.00
2023-03-24T21:00:42.086Z,100.00
2023-03-24T21:03:13.045Z,100.00
2023-03-24T21:05:44.010Z,100.00
2023-03-24T21:08:13.086Z,100.00
2023-03-24T21:10:43.009Z,100.00
2023-03-24T21:13:13.622Z,100.00
2023-03-24T21:15:45.918Z,100.00
2023-03-24T21:18:15.679Z,100.00
2023-03-24T21:20:55.607Z,100.00
2023-03-24T21:23:24.856Z,100.00
2023-03-24T21:25:53.715Z,100.00
2023-03-24T21:28:28.540Z,100.00
2023-03-24T21:30:57.808Z,100.00
2023-03-24T21:33:26.687Z,100.00
2023-03-24T21:35:58.677Z,100.00
2023-03-24T21:38:28.343Z,100.00
2023-03-24T21:41:00.951Z,100.00
2023-03-24T21:43:31.177Z,100.00
2023-03-24T21:46:00.735Z,100.00
2023-03-24T21:48:29.462Z,100.00
2023-03-24T21:51:03.149Z,100.00
2023-03-24T21:53:34.922Z,100.00
2023-03-24T21:56:06.672Z,100.00
2023-03-24T21:58:37.635Z,100.00
2023-03-24T22:01:07.842Z,100.00
2023-03-24T22:03:38.127Z,100.00
2023-03-24T22:06:12.182Z,100.00
2023-03-24T22:08:44.350Z,100.00
2023-03-24T22:11:15.954Z,100.00
2023-03-24T22:13:46.410Z,100.00
2023-03-24T22:16:16.249Z,100.00
2023-03-24T22:18:47.196Z,100.00
2023-03-24T22:21:19.192Z,100.00
2023-03-24T22:23:49.990Z,100.00
2023-03-24T22:26:19.055Z,100.00
2023-03-24T22:28:48.585Z,100.00
2023-03-24T22:31:23.562Z,100.00
2023-03-24T22:33:53.773Z,100.00
2023-03-24T22:36:24.680Z,100.00
2023-03-24T22:38:54.672Z,100.00
2023-03-24T22:41:24.212Z,100.00
2023-03-24T22:43:52.617Z,100.00
2023-03-24T22:46:24.430Z,100.00
2023-03-24T22:48:54.332Z,100.00
2023-03-24T22:51:25.267Z,100.00
2023-03-24T22:53:55.572Z,100.00
2023-03-24T22:56:25.054Z,100.00
2023-03-24T22:58:54.524Z,100.00
2023-03-24T23:01:24.140Z,100.00
2023-03-24T23:03:54.210Z,100.00
2023-03-24T23:06:26.267Z,100.00
2023-03-24T23:08:56.929Z,100.00
2023-03-24T23:11:26.708Z,100.00
2023-03-24T23:14:05.637Z,100.00
2023-03-24T23:16:38.617Z,100.00
2023-03-24T23:19:08.558Z,100.00
2023-03-24T23:21:40.518Z,100.00
2023-03-24T23:24:11.498Z,100.00
2023-03-24T23:26:41.508Z,100.00
2023-03-24T23:29:11.821Z,100.00
2023-03-24T23:31:41.725Z,100.00
2023-03-24T23:34:13.651Z,100.00
2023-03-24T23:36:50.462Z,100.00
2023-03-24T23:39:19.889Z,100.00
2023-03-24T23:41:49.813Z,100.00
2023-03-24T23:44:20.612Z,100.00
2023-03-24T23:46:49.586Z,100.00
2023-03-24T23:49:20.045Z,100.00
2023-03-24T23:51:51.423Z,100.00
2023-03-24T23:54:21.380Z,100.00
2023-03-24T23:56:52.014Z,100.00
2023-03-24T23:59:22.196Z,100.00
